Time;durP1;ratioP1;P1;durP2;ratioP2;P2;SDS_P1;SDS_P2;PMS_P1;PMS_P2;Temp;Humidity;BMP_temperature;BMP_pressure;BME280_temperature;BME280_humidity;BME280_pressure;Samples;Min_cycle;Max_cycle;Signal;HPM_P1;HPM_P2
2022/09/01 00:00:47;;;;;;;;;;;;;;;;;;5050680;28;19909;-44
2022/09/01 00:03:14;;;;;;;;;;;;;;;;;;5050939;28;19913;-44
2022/09/01 00:05:40;;;;;;;;;;;;;;;;;;5049288;28;19913;-45
2022/09/01 00:08:06;;;;;;;;;;;;;;;;;;5050487;28;19973;-44
2022/09/01 00:10:32;;;;;;;;;;;;;;;;;;5050046;28;19909;-46
2022/09/01 00:12:58;;;;;;;;;;;;;;;;;;5050203;28;19932;-48
2022/09/01 00:15:24;;;;;;;;;;;;;;;;;;5048609;28;19921;-48
2022/09/01 00:17:50;;;;;;;;;;;;;;;;;;5050127;28;19916;-47
2022/09/01 00:20:16;;;;;;;;;;;;;;;;;;5050757;28;19939;-45
2022/09/01 00:22:41;;;;;;;;;;;;;;;;;;5049814;28;20011;-45
2022/09/01 00:25:08;;;;;;;;;;;;;;;;;;5048597;28;20000;-45
2022/09/01 00:27:34;;;;;;;;;;;;;;;;;;5049739;28;19920;-47
2022/09/01 00:30:00;;;;;;;;;;;;;;;;;;5049101;28;20469;-46
2022/09/01 00:32:26;;;;;;;;;;;;;;;;;;5049328;28;20390;-45
2022/09/01 00:34:51;;;;;;;;;;;;;;;;;;5049211;28;19913;-47
2022/09/01 00:37:17;;;;;;;;;;;;;;;;;;5049873;28;19908;-44
2022/09/01 00:39:43;;;;;;;;;;;;;;;;;;5050264;28;19939;-44
2022/09/01 00:42:10;;;;;;;;;;;;;;;;;;5049715;28;19920;-47
2022/09/01 00:44:37;;;;;;;;;;;;;;;;;;5048785;28;20003;-45
2022/09/01 00:47:04;;;;;;;;;;;;;;;;;;5048626;28;19913;-46
2022/09/01 00:49:30;;;;;;;;;;;;;;;;;;5049374;28;19925;-44
2022/09/01 00:51:56;;;;;;;;;;;;;;;;;;5049289;28;19913;-45
2022/09/01 00:54:22;;;;;;;;;;;;;;;;;;5049176;28;19909;-47
2022/09/01 00:56:48;;;;;;;;;;;;;;;;;;5049226;28;19967;-47
2022/09/01 00:59:14;;;;;;;;;;;;;;;;;;5049976;28;19913;-44
2022/09/01 01:01:40;;;;;;;;;;;;;;;;;;5048627;28;19909;-46
2022/09/01 01:04:13;;;;;;;;;;;;;;;;;;5048551;28;19919;-44
2022/09/01 01:06:39;;;;;;;;;;;;;;;;;;5047376;28;19955;-45
2022/09/01 01:09:05;;;;;;;;;;;;;;;;;;5048540;28;19916;-45
2022/09/01 01:11:31;;;;;;;;;;;;;;;;;;5048877;28;20438;-44
2022/09/01 01:13:57;;;;;;;;;;;;;;;;;;5049121;28;19927;-44
2022/09/01 01:16:23;;;;;;;;;;;;;;;;;;5047698;28;19919;-45
2022/09/01 01:18:49;;;;;;;;;;;;;;;;;;5048969;28;19912;-45
2022/09/01 01:24:00;;;;;;;;;;;;;;;;;;5048863;28;19958;-46
2022/09/01 01:26:27;;;;;;;;;;;;;;;;;;5047973;28;20016;-45
2022/09/01 01:28:54;;;;;;;;;;;;;;;;;;5048614;28;19975;-47
2022/09/01 01:31:22;;;;;;;;;;;;;;;;;;5047954;28;19913;-46
2022/09/01 01:33:48;;;;;;;;;;;;;;;;;;5048067;28;19974;-44
2022/09/01 01:36:15;;;;;;;;;;;;;;;;;;5048560;28;20368;-44
2022/09/01 01:38:42;;;;;;;;;;;;;;;;;;5048500;28;19909;-45
2022/09/01 01:41:07;;;;;;;;;;;;;;;;;;5048599;28;20350;-45
2022/09/01 01:43:33;;;;;;;;;;;;;;;;;;5047679;28;19920;-47
2022/09/01 01:46:01;;;;;;;;;;;;;;;;;;5047656;28;19975;-46
2022/09/01 01:48:27;;;;;;;;;;;;;;;;;;5048192;28;20268;-45
2022/09/01 01:50:53;;;;;;;;;;;;;;;;;;5048521;28;19951;-45
2022/09/01 01:53:19;;;;;;;;;;;;;;;;;;5047910;28;19917;-45
2022/09/01 01:55:48;;;;;;;;;;;;;;;;;;5046901;28;19939;-47
2022/09/01 01:58:14;;;;;;;;;;;;;;;;;;5048262;28;20296;-45
2022/09/01 02:00:43;;;;;;;;;;;;;;;;;;5047659;28;19912;-44
2022/09/01 02:03:11;;;;;;;;;;;;;;;;;;5048011;28;19913;-44
2022/09/01 02:05:37;;;;;;;;;;;;;;;;;;5047274;28;19939;-44
2022/09/01 02:08:03;;;;;;;;;;;;;;;;;;5048000;28;19913;-47
2022/09/01 02:10:32;;;;;;;;;;;;;;;;;;5047742;28;19920;-45
2022/09/01 02:13:07;;;;;;;;;;;;;;;;;;5047791;28;19915;-47
2022/09/01 02:15:41;;;;;;;;;;;;;;;;;;5046790;28;19951;-45
2022/09/01 02:18:07;;;;;;;;;;;;;;;;;;5047518;28;19916;-47
2022/09/01 02:20:33;;;;;;;;;;;;;;;;;;5047645;28;19912;-44
2022/09/01 02:23:08;;;;;;;;;;;;;;;;;;5047719;28;19967;-45
2022/09/01 02:25:34;;;;;;;;;;;;;;;;;;5046915;28;20303;-44
2022/09/01 02:28:02;;;;;;;;;;;;;;;;;;5047577;28;19963;-47
2022/09/01 02:30:31;;;;;;;;;;;;;;;;;;5047120;28;19915;-44
2022/09/01 02:32:58;;;;;;;;;;;;;;;;;;5046748;28;20004;-47
2022/09/01 02:35:27;;;;;;;;;;;;;;;;;;5046792;28;20358;-46
2022/09/01 02:37:59;;;;;;;;;;;;;;;;;;5047621;28;20635;-48
2022/09/01 02:40:28;;;;;;;;;;;;;;;;;;5047449;28;19913;-46
2022/09/01 02:42:54;;;;;;;;;;;;;;;;;;5047061;28;19999;-46
2022/09/01 02:45:23;;;;;;;;;;;;;;;;;;5045779;28;20328;-47
2022/09/01 02:47:50;;;;;;;;;;;;;;;;;;5047392;28;19913;-47
2022/09/01 02:50:17;;;;;;;;;;;;;;;;;;5048066;28;20007;-47
2022/09/01 02:52:43;;;;;;;;;;;;;;;;;;5047134;28;19958;-46
2022/09/01 02:55:10;;;;;;;;;;;;;;;;;;5047399;28;20346;-46
2022/09/01 02:57:36;;;;;;;;;;;;;;;;;;5046132;28;20403;-46
2022/09/01 03:00:02;;;;;;;;;;;;;;;;;;5047243;28;19912;-45
2022/09/01 03:02:28;;;;;;;;;;;;;;;;;;5045160;28;19916;-47
2022/09/01 03:04:56;;;;;;;;;;;;;;;;;;5047250;28;20003;-44
2022/09/01 03:07:24;;;;;;;;;;;;;;;;;;5046217;28;20027;-44
2022/09/01 03:09:51;;;;;;;;;;;;;;;;;;5046910;28;19916;-45
2022/09/01 03:12:18;;;;;;;;;;;;;;;;;;5047398;28;20591;-45
2022/09/01 03:14:44;;;;;;;;;;;;;;;;;;5046024;28;19978;-45
2022/09/01 03:17:10;;;;;;;;;;;;;;;;;;5046004;28;20430;-47
2022/09/01 03:19:43;;;;;;;;;;;;;;;;;;5046320;28;20295;-44
2022/09/01 03:22:09;;;;;;;;;;;;;;;;;;5046618;28;19912;-44
2022/09/01 03:24:35;;;;;;;;;;;;;;;;;;5045704;28;19958;-47
2022/09/01 03:27:01;;;;;;;;;;;;;;;;;;5046623;28;19913;-47
2022/09/01 03:29:27;;;;;;;;;;;;;;;;;;5045996;28;20001;-46
2022/09/01 03:31:53;;;;;;;;;;;;;;;;;;5046407;28;19912;-44
2022/09/01 03:34:22;;;;;;;;;;;;;;;;;;5046607;28;19913;-45
2022/09/01 03:36:51;;;;;;;;;;;;;;;;;;5047009;28;20683;-48
2022/09/01 03:39:17;;;;;;;;;;;;;;;;;;5047309;28;19947;-45
2022/09/01 03:41:43;;;;;;;;;;;;;;;;;;5045542;28;19923;-48
2022/09/01 03:44:12;;;;;;;;;;;;;;;;;;5045000;28;19920;-47
2022/09/01 03:46:39;;;;;;;;;;;;;;;;;;5026432;28;20399;-46
2022/09/01 03:49:11;;;;;;;;;;;;;;;;;;5026683;28;19920;-48
2022/09/01 03:51:37;;;;;;;;;;;;;;;;;;5044412;28;20007;-45
2022/09/01 03:54:03;;;;;;;;;;;;;;;;;;5046433;28;20556;-45
2022/09/01 03:56:29;;;;;;;;;;;;;;;;;;5046098;28;19955;-44
2022/09/01 03:58:55;;;;;;;;;;;;;;;;;;5045870;28;19909;-49
2022/09/01 04:01:21;;;;;;;;;;;;;;;;;;5045802;28;20290;-47
2022/09/01 04:03:47;;;;;;;;;;;;;;;;;;5046554;28;20011;-46
2022/09/01 04:06:13;;;;;;;;;;;;;;;;;;5045053;28;19974;-47
2022/09/01 04:08:39;;;;;;;;;;;;;;;;;;5045993;28;19944;-48
2022/09/01 04:11:05;;;;;;;;;;;;;;;;;;5046050;28;19915;-47
2022/09/01 04:13:32;;;;;;;;;;;;;;;;;;5045744;28;19913;-47
2022/09/01 04:15:58;;;;;;;;;;;;;;;;;;5046188;28;19920;-45
2022/09/01 04:18:24;;;;;;;;;;;;;;;;;;5043909;28;19913;-44
2022/09/01 04:20:50;;;;;;;;;;;;;;;;;;5045932;28;19913;-45
2022/09/01 04:23:24;;;;;;;;;;;;;;;;;;5046916;28;19908;-44
2022/09/01 04:25:50;;;;;;;;;;;;;;;;;;5045372;28;20039;-45
2022/09/01 04:28:21;;;;;;;;;;;;;;;;;;5046502;28;20054;-45
2022/09/01 04:30:49;;;;;;;;;;;;;;;;;;5046206;28;19921;-44
2022/09/01 04:33:16;;;;;;;;;;;;;;;;;;5046070;28;19913;-48
2022/09/01 04:35:42;;;;;;;;;;;;;;;;;;5045822;28;19959;-44
2022/09/01 04:38:08;;;;;;;;;;;;;;;;;;5045827;28;19909;-44
2022/09/01 04:40:36;;;;;;;;;;;;;;;;;;5045366;28;20383;-45
2022/09/01 04:43:02;;;;;;;;;;;;;;;;;;5049333;28;20308;-44
2022/09/01 04:45:28;;;;;;;;;;;;;;;;;;5049272;28;19917;-44
2022/09/01 04:47:54;;;;;;;;;;;;;;;;;;5048764;28;20602;-47
2022/09/01 04:50:20;;;;;;;;;;;;;;;;;;5048884;28;19920;-45
2022/09/01 04:52:46;;;;;;;;;;;;;;;;;;5049691;28;19917;-45
2022/09/01 04:55:16;;;;;;;;;;;;;;;;;;5049401;28;20534;-45
2022/09/01 04:57:46;;;;;;;;;;;;;;;;;;5049050;28;19959;-47
2022/09/01 05:00:21;;;;;;;;;;;;;;;;;;5048393;28;19971;-45
2022/09/01 05:02:47;;;;;;;;;;;;;;;;;;5049803;28;19916;-45
2022/09/01 05:05:13;;;;;;;;;;;;;;;;;;5049060;28;19947;-46
2022/09/01 05:07:38;;;;;;;;;;;;;;;;;;5049037;28;20600;-46
2022/09/01 05:10:05;;;;;;;;;;;;;;;;;;5047894;28;19917;-45
2022/09/01 05:12:31;;;;;;;;;;;;;;;;;;5048066;28;19952;-45
2022/09/01 05:14:57;;;;;;;;;;;;;;;;;;5048764;28;19952;-46
2022/09/01 05:17:27;;;;;;;;;;;;;;;;;;5048464;28;19917;-45
2022/09/01 05:19:54;;;;;;;;;;;;;;;;;;5047954;28;19921;-46
2022/09/01 05:22:20;;;;;;;;;;;;;;;;;;5049081;28;19935;-45
2022/09/01 05:24:47;;;;;;;;;;;;;;;;;;5049287;28;20000;-45
2022/09/01 05:27:16;;;;;;;;;;;;;;;;;;5047930;28;19963;-44
2022/09/01 05:29:45;;;;;;;;;;;;;;;;;;5047469;28;19921;-44
2022/09/01 05:32:11;;;;;;;;;;;;;;;;;;5030114;28;19913;-46
2022/09/01 05:34:38;;;;;;;;;;;;;;;;;;5047223;28;20426;-44
2022/09/01 05:37:05;;;;;;;;;;;;;;;;;;5047747;28;20395;-45
2022/09/01 05:39:31;;;;;;;;;;;;;;;;;;5045831;28;20445;-44
2022/09/01 05:41:57;;;;;;;;;;;;;;;;;;5047174;28;19912;-45
2022/09/01 05:44:23;;;;;;;;;;;;;;;;;;5047446;28;20023;-47
2022/09/01 05:46:49;;;;;;;;;;;;;;;;;;5045865;28;19916;-46
2022/09/01 05:49:17;;;;;;;;;;;;;;;;;;5048878;28;19924;-46
2022/09/01 05:51:43;;;;;;;;;;;;;;;;;;5047277;28;20007;-45
2022/09/01 05:54:10;;;;;;;;;;;;;;;;;;5048049;28;20790;-44
2022/09/01 05:56:41;;;;;;;;;;;;;;;;;;5048100;28;20055;-46
2022/09/01 05:59:09;;;;;;;;;;;;;;;;;;5047586;28;19970;-44
2022/09/01 06:01:40;;;;;;;;;;;;;;;;;;5045781;28;19922;-45
2022/09/01 06:04:06;;;;;;;;;;;;;;;;;;5048241;28;20034;-45
2022/09/01 06:06:34;;;;;;;;;;;;;;;;;;5047702;28;20015;-45
2022/09/01 06:09:01;;;;;;;;;;;;;;;;;;5047639;28;19912;-45
2022/09/01 06:11:29;;;;;;;;;;;;;;;;;;5045458;28;19920;-47
2022/09/01 06:13:57;;;;;;;;;;;;;;;;;;5047675;28;19916;-45
2022/09/01 06:16:23;;;;;;;;;;;;;;;;;;5047245;28;19993;-49
2022/09/01 06:18:51;;;;;;;;;;;;;;;;;;5047912;28;19975;-44
2022/09/01 06:21:17;;;;;;;;;;;;;;;;;;5048027;28;19962;-49
2022/09/01 06:23:43;;;;;;;;;;;;;;;;;;5047308;28;19913;-45
2022/09/01 06:26:09;;;;;;;;;;;;;;;;;;5047101;28;19917;-47
2022/09/01 06:28:39;;;;;;;;;;;;;;;;;;5045921;28;19916;-46
2022/09/01 06:31:06;;;;;;;;;;;;;;;;;;5047643;28;19908;-46
2022/09/01 06:33:33;;;;;;;;;;;;;;;;;;5046009;28;19917;-48
2022/09/01 06:35:59;;;;;;;;;;;;;;;;;;5046844;28;19923;-47
2022/09/01 06:38:26;;;;;;;;;;;;;;;;;;5046699;28;19919;-46
2022/09/01 06:40:53;;;;;;;;;;;;;;;;;;5047167;28;19909;-47
2022/09/01 06:43:20;;;;;;;;;;;;;;;;;;5047182;28;20019;-46
2022/09/01 06:45:53;;;;;;;;;;;;;;;;;;5047798;28;19916;-46
2022/09/01 06:48:21;;;;;;;;;;;;;;;;;;5045676;28;19917;-44
2022/09/01 06:50:46;;;;;;;;;;;;;;;;;;5047641;28;19909;-46
2022/09/01 06:53:17;;;;;;;;;;;;;;;;;;5047426;28;19974;-46
2022/09/01 06:55:45;;;;;;;;;;;;;;;;;;5046897;28;19908;-48
2022/09/01 06:58:14;;;;;;;;;;;;;;;;;;5046086;28;19971;-48
2022/09/01 07:00:40;;;;;;;;;;;;;;;;;;5046898;28;19955;-46
2022/09/01 07:03:08;;;;;;;;;;;;;;;;;;5045649;28;19923;-45
2022/09/01 07:05:36;;;;;;;;;;;;;;;;;;5045964;28;19983;-48
2022/09/01 07:08:06;;;;;;;;;;;;;;;;;;5046416;28;20000;-46
2022/09/01 07:10:32;;;;;;;;;;;;;;;;;;5044699;28;19924;-45
2022/09/01 07:12:58;;;;;;;;;;;;;;;;;;5043281;28;19917;-45
2022/09/01 07:15:25;;;;;;;;;;;;;;;;;;5045801;28;19923;-45
2022/09/01 07:17:51;;;;;;;;;;;;;;;;;;5045347;28;19924;-49
2022/09/01 07:20:17;;;;;;;;;;;;;;;;;;5046637;28;19926;-44
2022/09/01 07:22:43;;;;;;;;;;;;;;;;;;5046369;28;20477;-47
2022/09/01 07:25:11;;;;;;;;;;;;;;;;;;5046838;28;19966;-48
2022/09/01 07:27:37;;;;;;;;;;;;;;;;;;5045850;28;20374;-47
2022/09/01 07:30:03;;;;;;;;;;;;;;;;;;5046748;28;20384;-45
2022/09/01 07:32:30;;;;;;;;;;;;;;;;;;5046394;28;19956;-47
2022/09/01 07:34:56;;;;;;;;;;;;;;;;;;5046877;28;19909;-46
2022/09/01 07:37:22;;;;;;;;;;;;;;;;;;5046176;28;19913;-46
2022/09/01 07:39:48;;;;;;;;;;;;;;;;;;5046938;28;19951;-45
2022/09/01 07:42:15;;;;;;;;;;;;;;;;;;5046696;28;19912;-45
2022/09/01 07:44:43;;;;;;;;;;;;;;;;;;5045459;28;19917;-48
2022/09/01 07:47:10;;;;;;;;;;;;;;;;;;5046638;28;19928;-48
2022/09/01 07:49:36;;;;;;;;;;;;;;;;;;5046282;28;19956;-47
2022/09/01 07:52:02;;;;;;;;;;;;;;;;;;5045550;28;19924;-47
2022/09/01 07:54:29;;;;;;;;;;;;;;;;;;5045675;28;19917;-45
2022/09/01 07:56:55;;;;;;;;;;;;;;;;;;5042773;28;20416;-45
2022/09/01 07:59:20;;;;;;;;;;;;;;;;;;5034500;28;19921;-45
2022/09/01 08:01:46;;;;;;;;;;;;;;;;;;5044764;28;19920;-49
2022/09/01 08:04:12;;;;;;;;;;;;;;;;;;5047841;28;19917;-47
2022/09/01 08:06:38;;;;;;;;;;;;;;;;;;5050366;28;19939;-48
2022/09/01 08:09:06;;;;;;;;;;;;;;;;;;5042208;28;19921;-47
2022/09/01 08:11:32;;;;;;;;;;;;;;;;;;5025962;28;20005;-48
2022/09/01 08:13:58;;;;;;;;;;;;;;;;;;5033811;28;19956;-47
2022/09/01 08:16:24;;;;;;;;;;;;;;;;;;5045676;28;19921;-45
2022/09/01 08:18:50;;;;;;;;;;;;;;;;;;5049495;28;19923;-45
2022/09/01 08:21:15;;;;;;;;;;;;;;;;;;5050735;28;19913;-46
2022/09/01 08:23:41;;;;;;;;;;;;;;;;;;5049700;28;19959;-46
2022/09/01 08:26:07;;;;;;;;;;;;;;;;;;5048902;28;19917;-49
2022/09/01 08:28:33;;;;;;;;;;;;;;;;;;5048703;28;19931;-49
2022/09/01 08:30:59;;;;;;;;;;;;;;;;;;5049205;28;19955;-45
2022/09/01 08:33:25;;;;;;;;;;;;;;;;;;5049218;28;20426;-44
2022/09/01 08:35:51;;;;;;;;;;;;;;;;;;5049775;28;20004;-45
2022/09/01 08:38:17;;;;;;;;;;;;;;;;;;5048805;28;19919;-45
2022/09/01 08:40:43;;;;;;;;;;;;;;;;;;5048474;28;19959;-45
2022/09/01 08:43:09;;;;;;;;;;;;;;;;;;5048361;28;19970;-46
2022/09/01 08:45:36;;;;;;;;;;;;;;;;;;5047633;28;19917;-46
2022/09/01 08:48:02;;;;;;;;;;;;;;;;;;5049687;28;19940;-44
2022/09/01 08:50:28;;;;;;;;;;;;;;;;;;5048381;28;19920;-47
2022/09/01 08:52:54;;;;;;;;;;;;;;;;;;5048681;28;19986;-48
2022/09/01 08:55:24;;;;;;;;;;;;;;;;;;5048323;28;19913;-45
2022/09/01 08:57:54;;;;;;;;;;;;;;;;;;5046127;28;19912;-45
2022/09/01 09:00:22;;;;;;;;;;;;;;;;;;5048676;28;19916;-46
2022/09/01 09:02:48;;;;;;;;;;;;;;;;;;5046247;28;19913;-47
2022/09/01 09:05:14;;;;;;;;;;;;;;;;;;5049393;28;19959;-45
2022/09/01 09:07:40;;;;;;;;;;;;;;;;;;5047704;28;19948;-48
2022/09/01 09:10:07;;;;;;;;;;;;;;;;;;5046384;28;19973;-48
2022/09/01 09:12:33;;;;;;;;;;;;;;;;;;5047628;28;19917;-47
2022/09/01 09:14:59;;;;;;;;;;;;;;;;;;5048053;28;19958;-48
2022/09/01 09:17:25;;;;;;;;;;;;;;;;;;5048715;28;19917;-45
2022/09/01 09:19:51;;;;;;;;;;;;;;;;;;5047986;28;19920;-46
2022/09/01 09:22:17;;;;;;;;;;;;;;;;;;5047324;28;19923;-45
2022/09/01 09:24:46;;;;;;;;;;;;;;;;;;5047224;28;19917;-47
2022/09/01 09:27:12;;;;;;;;;;;;;;;;;;5048196;28;19917;-46
2022/09/01 09:29:38;;;;;;;;;;;;;;;;;;5047871;28;19922;-45
2022/09/01 09:32:04;;;;;;;;;;;;;;;;;;5048319;28;19927;-47
2022/09/01 09:34:31;;;;;;;;;;;;;;;;;;5047382;28;19912;-45
2022/09/01 09:36:58;;;;;;;;;;;;;;;;;;5048075;28;19915;-46
2022/09/01 09:39:24;;;;;;;;;;;;;;;;;;5048531;28;19942;-45
2022/09/01 09:41:50;;;;;;;;;;;;;;;;;;5047984;28;20304;-47
2022/09/01 09:44:16;;;;;;;;;;;;;;;;;;5046505;28;19923;-46
2022/09/01 09:46:42;;;;;;;;;;;;;;;;;;5047952;28;19943;-48
2022/09/01 09:49:09;;;;;;;;;;;;;;;;;;5048471;28;20383;-45
2022/09/01 09:51:35;;;;;;;;;;;;;;;;;;5045662;28;19912;-46
2022/09/01 09:54:01;;;;;;;;;;;;;;;;;;5047086;28;20646;-45
2022/09/01 09:56:27;;;;;;;;;;;;;;;;;;5047876;28;19916;-45
2022/09/01 09:58:53;;;;;;;;;;;;;;;;;;5047935;28;19959;-45
2022/09/01 10:01:22;;;;;;;;;;;;;;;;;;5048151;28;19923;-45
2022/09/01 10:03:49;;;;;;;;;;;;;;;;;;5048086;28;20331;-46
2022/09/01 10:06:15;;;;;;;;;;;;;;;;;;5046523;28;19912;-44
2022/09/01 10:08:43;;;;;;;;;;;;;;;;;;5046914;28;19921;-46
2022/09/01 10:11:09;;;;;;;;;;;;;;;;;;5045057;28;19962;-47
2022/09/01 10:13:35;;;;;;;;;;;;;;;;;;5043500;28;19921;-46
2022/09/01 10:16:01;;;;;;;;;;;;;;;;;;5046217;28;19950;-46
2022/09/01 10:18:28;;;;;;;;;;;;;;;;;;5043155;28;19920;-45
2022/09/01 10:20:54;;;;;;;;;;;;;;;;;;5046607;28;19932;-47
2022/09/01 10:23:20;;;;;;;;;;;;;;;;;;5045051;28;19913;-48
2022/09/01 10:25:46;;;;;;;;;;;;;;;;;;5046676;28;19979;-47
2022/09/01 10:28:13;;;;;;;;;;;;;;;;;;5045211;28;19924;-46
2022/09/01 10:30:41;;;;;;;;;;;;;;;;;;5045681;28;19975;-45
2022/09/01 10:33:07;;;;;;;;;;;;;;;;;;5045757;28;20012;-45
2022/09/01 10:35:33;;;;;;;;;;;;;;;;;;5047766;28;19987;-48
2022/09/01 10:37:59;;;;;;;;;;;;;;;;;;5045429;28;19916;-47
2022/09/01 10:40:28;;;;;;;;;;;;;;;;;;5044265;28;19913;-49
2022/09/01 10:42:54;;;;;;;;;;;;;;;;;;5043606;28;19924;-49
2022/09/01 10:45:21;;;;;;;;;;;;;;;;;;5046869;28;19909;-47
2022/09/01 10:47:47;;;;;;;;;;;;;;;;;;5045221;28;20500;-48
2022/09/01 10:50:14;;;;;;;;;;;;;;;;;;5046065;28;20031;-48
2022/09/01 10:52:40;;;;;;;;;;;;;;;;;;5045259;28;19908;-47
2022/09/01 10:55:06;;;;;;;;;;;;;;;;;;5045854;28;19920;-46
2022/09/01 10:57:32;;;;;;;;;;;;;;;;;;5045637;28;19912;-46
2022/09/01 10:59:58;;;;;;;;;;;;;;;;;;5043765;28;20070;-47
2022/09/01 11:02:24;;;;;;;;;;;;;;;;;;5042195;28;20009;-46
2022/09/01 11:04:50;;;;;;;;;;;;;;;;;;5044710;28;20402;-48
2022/09/01 11:07:16;;;;;;;;;;;;;;;;;;5047176;28;19917;-48
2022/09/01 11:09:42;;;;;;;;;;;;;;;;;;5045324;28;19917;-45
2022/09/01 11:12:09;;;;;;;;;;;;;;;;;;5045885;28;19959;-46
2022/09/01 11:14:35;;;;;;;;;;;;;;;;;;5045920;28;20307;-48
2022/09/01 11:17:01;;;;;;;;;;;;;;;;;;5044326;28;19917;-48
2022/09/01 11:19:26;;;;;;;;;;;;;;;;;;5046591;28;19991;-49
2022/09/01 11:21:52;;;;;;;;;;;;;;;;;;5038957;28;19912;-49
2022/09/01 11:24:19;;;;;;;;;;;;;;;;;;5028070;28;19920;-48
2022/09/01 11:26:44;;;;;;;;;;;;;;;;;;5028458;28;20796;-46
2022/09/01 11:29:10;;;;;;;;;;;;;;;;;;5025291;28;19921;-45
2022/09/01 11:31:38;;;;;;;;;;;;;;;;;;5027618;28;19942;-46
2022/09/01 11:34:04;;;;;;;;;;;;;;;;;;5035436;28;19943;-45
2022/09/01 11:36:30;;;;;;;;;;;;;;;;;;5033582;28;20158;-46
2022/09/01 11:38:55;;;;;;;;;;;;;;;;;;5029008;28;20414;-48
2022/09/01 11:41:22;;;;;;;;;;;;;;;;;;5029479;28;19917;-48
2022/09/01 11:43:48;;;;;;;;;;;;;;;;;;5032216;28;19928;-47
2022/09/01 11:46:14;;;;;;;;;;;;;;;;;;5027217;28;19935;-49
2022/09/01 11:48:40;;;;;;;;;;;;;;;;;;5028703;28;19966;-47
2022/09/01 11:51:06;;;;;;;;;;;;;;;;;;5024922;28;20019;-49
2022/09/01 11:53:32;;;;;;;;;;;;;;;;;;5028720;28;19920;-50
2022/09/01 11:55:58;;;;;;;;;;;;;;;;;;5037435;28;19917;-48
2022/09/01 11:58:25;;;;;;;;;;;;;;;;;;5029598;28;20449;-50
2022/09/01 12:00:51;;;;;;;;;;;;;;;;;;5032392;28;20086;-49
2022/09/01 12:03:17;;;;;;;;;;;;;;;;;;5012421;28;20016;-51
2022/09/01 12:05:43;;;;;;;;;;;;;;;;;;5030579;28;20163;-47
2022/09/01 12:08:12;;;;;;;;;;;;;;;;;;5034563;28;19912;-46
2022/09/01 12:10:39;;;;;;;;;;;;;;;;;;5050166;28;20011;-46
2022/09/01 12:13:05;;;;;;;;;;;;;;;;;;5048202;28;19948;-44
2022/09/01 12:15:33;;;;;;;;;;;;;;;;;;5042121;28;19960;-45
2022/09/01 12:17:59;;;;;;;;;;;;;;;;;;5049011;28;19916;-48
2022/09/01 12:20:26;;;;;;;;;;;;;;;;;;5047572;28;19917;-48
2022/09/01 12:22:52;;;;;;;;;;;;;;;;;;5045006;28;19955;-48
2022/09/01 12:25:18;;;;;;;;;;;;;;;;;;5047535;28;20234;-46
2022/09/01 12:27:43;;;;;;;;;;;;;;;;;;5046768;28;19931;-47
2022/09/01 12:30:09;;;;;;;;;;;;;;;;;;5051412;28;19917;-45
2022/09/01 12:32:35;;;;;;;;;;;;;;;;;;5048879;28;19924;-45
2022/09/01 12:35:01;;;;;;;;;;;;;;;;;;5049399;28;19917;-46
2022/09/01 12:37:28;;;;;;;;;;;;;;;;;;5048546;28;19963;-45
2022/09/01 12:39:56;;;;;;;;;;;;;;;;;;5049097;28;19920;-48
2022/09/01 12:42:26;;;;;;;;;;;;;;;;;;5047036;28;19970;-45
2022/09/01 12:44:52;;;;;;;;;;;;;;;;;;5047449;28;19924;-45
2022/09/01 12:47:18;;;;;;;;;;;;;;;;;;5049126;28;19924;-45
2022/09/01 12:49:44;;;;;;;;;;;;;;;;;;5046552;28;19928;-48
2022/09/01 12:52:10;;;;;;;;;;;;;;;;;;5048211;28;19917;-45
2022/09/01 12:54:36;;;;;;;;;;;;;;;;;;5045043;28;19913;-46
2022/09/01 12:57:02;;;;;;;;;;;;;;;;;;5049580;28;19919;-45
2022/09/01 12:59:28;;;;;;;;;;;;;;;;;;5046199;28;20058;-46
2022/09/01 13:01:54;;;;;;;;;;;;;;;;;;5048374;28;19913;-45
2022/09/01 13:04:20;;;;;;;;;;;;;;;;;;5039461;28;19909;-48
2022/09/01 13:06:45;;;;;;;;;;;;;;;;;;5036398;28;19923;-46
2022/09/01 13:09:11;;;;;;;;;;;;;;;;;;5048592;28;19952;-48
2022/09/01 13:11:37;;;;;;;;;;;;;;;;;;5048882;28;19921;-49
2022/09/01 13:14:03;;;;;;;;;;;;;;;;;;5050385;28;19923;-46
2022/09/01 13:16:29;;;;;;;;;;;;;;;;;;5051265;28;19960;-46
2022/09/01 13:18:55;;;;;;;;;;;;;;;;;;5049458;28;19948;-47
2022/09/01 13:21:21;;;;;;;;;;;;;;;;;;5051347;28;19923;-48
2022/09/01 13:23:48;;;;;;;;;;;;;;;;;;5047853;28;20391;-47
2022/09/01 13:26:14;;;;;;;;;;;;;;;;;;5051411;28;19913;-46
2022/09/01 13:28:40;;;;;;;;;;;;;;;;;;5049501;28;19909;-46
2022/09/01 13:31:06;;;;;;;;;;;;;;;;;;5048093;28;19999;-46
2022/09/01 13:33:32;;;;;;;;;;;;;;;;;;5048171;28;19912;-48
2022/09/01 13:35:58;;;;;;;;;;;;;;;;;;5050568;28;19924;-46
2022/09/01 13:38:24;;;;;;;;;;;;;;;;;;5037199;28;19925;-46
2022/09/01 13:40:50;;;;;;;;;;;;;;;;;;5048688;28;19913;-45
2022/09/01 13:43:15;;;;;;;;;;;;;;;;;;5043426;28;20406;-46
2022/09/01 13:45:41;;;;;;;;;;;;;;;;;;5046265;28;19916;-47
2022/09/01 13:48:07;;;;;;;;;;;;;;;;;;5048483;28;20027;-46
2022/09/01 13:50:33;;;;;;;;;;;;;;;;;;5030745;28;19975;-47
2022/09/01 13:52:59;;;;;;;;;;;;;;;;;;5048329;28;19937;-46
2022/09/01 13:55:25;;;;;;;;;;;;;;;;;;5049594;28;19913;-47
2022/09/01 13:57:51;;;;;;;;;;;;;;;;;;5049523;28;19920;-47
2022/09/01 14:00:17;;;;;;;;;;;;;;;;;;5050345;28;19939;-47
2022/09/01 14:02:48;;;;;;;;;;;;;;;;;;5046786;28;19916;-48
2022/09/01 14:05:14;;;;;;;;;;;;;;;;;;5047866;28;19909;-49
2022/09/01 14:07:40;;;;;;;;;;;;;;;;;;5049345;28;19939;-49
2022/09/01 14:10:07;;;;;;;;;;;;;;;;;;5049308;28;19920;-47
2022/09/01 14:12:33;;;;;;;;;;;;;;;;;;5048305;28;19920;-46
2022/09/01 14:14:59;;;;;;;;;;;;;;;;;;5044096;28;19912;-47
2022/09/01 14:17:25;;;;;;;;;;;;;;;;;;5047148;28;20012;-46
2022/09/01 14:19:51;;;;;;;;;;;;;;;;;;5048754;28;19943;-48
2022/09/01 14:22:17;;;;;;;;;;;;;;;;;;5049591;28;19916;-49
2022/09/01 14:24:43;;;;;;;;;;;;;;;;;;5047602;28;19921;-47
2022/09/01 14:27:09;;;;;;;;;;;;;;;;;;5048713;28;20015;-49
2022/09/01 14:29:35;;;;;;;;;;;;;;;;;;5049041;28;19917;-49
2022/09/01 14:32:01;;;;;;;;;;;;;;;;;;5048304;28;20003;-47
2022/09/01 14:34:27;;;;;;;;;;;;;;;;;;5048328;28;20003;-47
2022/09/01 14:36:55;;;;;;;;;;;;;;;;;;5046295;28;19923;-49
2022/09/01 14:39:21;;;;;;;;;;;;;;;;;;5048705;28;19912;-48
2022/09/01 14:41:47;;;;;;;;;;;;;;;;;;5048310;28;19962;-47
2022/09/01 14:44:13;;;;;;;;;;;;;;;;;;5048066;28;19921;-48
2022/09/01 14:46:39;;;;;;;;;;;;;;;;;;5048401;28;19966;-46
2022/09/01 14:49:06;;;;;;;;;;;;;;;;;;5047769;28;20442;-46
2022/09/01 14:51:32;;;;;;;;;;;;;;;;;;5046528;28;19924;-46
2022/09/01 14:53:58;;;;;;;;;;;;;;;;;;5047348;28;19917;-46
2022/09/01 14:56:24;;;;;;;;;;;;;;;;;;5049510;28;20478;-45
2022/09/01 14:58:50;;;;;;;;;;;;;;;;;;5044105;28;19999;-44
2022/09/01 15:01:16;;;;;;;;;;;;;;;;;;5048445;28;19913;-44
2022/09/01 15:03:42;;;;;;;;;;;;;;;;;;5045621;28;19916;-43
2022/09/01 15:06:08;;;;;;;;;;;;;;;;;;5046673;28;19942;-46
2022/09/01 15:08:34;;;;;;;;;;;;;;;;;;5042693;28;19995;-43
2022/09/01 15:11:01;;;;;;;;;;;;;;;;;;5047803;28;19915;-44
2022/09/01 15:13:27;;;;;;;;;;;;;;;;;;5041377;28;20059;-44
2022/09/01 15:15:53;;;;;;;;;;;;;;;;;;5045192;28;19962;-45
2022/09/01 15:18:19;;;;;;;;;;;;;;;;;;5042085;28;20563;-47
2022/09/01 15:20:45;;;;;;;;;;;;;;;;;;5045753;28;20404;-43
2022/09/01 15:23:11;;;;;;;;;;;;;;;;;;5044399;28;19909;-44
2022/09/01 15:25:37;;;;;;;;;;;;;;;;;;5046905;28;19919;-47
2022/09/01 15:28:02;;;;;;;;;;;;;;;;;;5044469;28;19917;-44
2022/09/01 15:30:29;;;;;;;;;;;;;;;;;;5044445;28;19976;-46
2022/09/01 15:32:55;;;;;;;;;;;;;;;;;;5044826;28;19945;-44
2022/09/01 15:35:21;;;;;;;;;;;;;;;;;;5045973;28;20308;-44
2022/09/01 15:37:47;;;;;;;;;;;;;;;;;;5044649;28;19923;-45
2022/09/01 15:40:13;;;;;;;;;;;;;;;;;;5045710;28;20011;-44
2022/09/01 15:42:39;;;;;;;;;;;;;;;;;;5046002;28;20004;-43
2022/09/01 15:45:05;;;;;;;;;;;;;;;;;;5046558;28;19940;-45
2022/09/01 15:47:31;;;;;;;;;;;;;;;;;;5045007;28;19932;-43
2022/09/01 15:49:57;;;;;;;;;;;;;;;;;;5045549;28;19925;-44
2022/09/01 15:52:23;;;;;;;;;;;;;;;;;;5042028;28;19917;-48
2022/09/01 15:54:51;;;;;;;;;;;;;;;;;;5045033;28;21405;-47
2022/09/01 15:57:17;;;;;;;;;;;;;;;;;;5045273;28;19995;-45
2022/09/01 15:59:44;;;;;;;;;;;;;;;;;;5045343;28;19917;-44
2022/09/01 16:02:11;;;;;;;;;;;;;;;;;;5042431;28;19962;-45
2022/09/01 16:04:37;;;;;;;;;;;;;;;;;;5043899;28;20719;-45
2022/09/01 16:07:03;;;;;;;;;;;;;;;;;;5045933;28;19974;-44
2022/09/01 16:09:29;;;;;;;;;;;;;;;;;;5044813;28;20039;-44
2022/09/01 16:11:55;;;;;;;;;;;;;;;;;;5045512;28;20003;-45
2022/09/01 16:14:22;;;;;;;;;;;;;;;;;;5043367;28;19931;-46
2022/09/01 16:16:50;;;;;;;;;;;;;;;;;;5045278;28;19917;-44
2022/09/01 16:19:16;;;;;;;;;;;;;;;;;;5043800;28;20380;-44
2022/09/01 16:21:42;;;;;;;;;;;;;;;;;;5046358;28;19998;-43
2022/09/01 16:24:08;;;;;;;;;;;;;;;;;;5044021;28;19915;-44
2022/09/01 16:26:34;;;;;;;;;;;;;;;;;;5046155;28;20019;-47
2022/09/01 16:29:00;;;;;;;;;;;;;;;;;;5044230;28;19913;-47
2022/09/01 16:31:26;;;;;;;;;;;;;;;;;;5044684;28;19912;-44
2022/09/01 16:33:55;;;;;;;;;;;;;;;;;;5042803;28;20337;-45
2022/09/01 16:36:21;;;;;;;;;;;;;;;;;;5044213;28;19913;-44
2022/09/01 16:38:47;;;;;;;;;;;;;;;;;;5048538;28;19913;-44
2022/09/01 16:41:15;;;;;;;;;;;;;;;;;;5049175;28;19923;-44
2022/09/01 16:43:41;;;;;;;;;;;;;;;;;;5047365;28;19955;-44